Time;durP1;ratioP1;P1;durP2;ratioP2;P2;SDS_P1;SDS_P2;PMS_P1;PMS_P2;Temp;Humidity;BMP_temperature;BMP_pressure;BME280_temperature;BME280_humidity;BME280_pressure;Samples;Min_cycle;Max_cycle;Signal;HPM_P1;HPM_P2
2022/09/13 00:00:04;;;;;;;10.03;9.17;;;;;;;10.03;100.00;96849.47;5006532;28;20208;-65
2022/09/13 00:02:32;;;;;;;10.57;9.73;;;;;;;10.17;100.00;96856.50;5009003;28;20627;-65
2022/09/13 00:05:01;;;;;;;9.77;8.77;;;;;;;10.14;100.00;96859.53;4991586;28;20323;-69
2022/09/13 00:07:29;;;;;;;10.10;9.10;;;;;;;9.96;100.00;96836.16;5008853;28;20208;-68
2022/09/13 00:09:57;;;;;;;9.33;8.63;;;;;;;10.09;100.00;96849.53;5007376;28;20212;-67
2022/09/13 00:12:25;;;;;;;9.40;8.60;;;;;;;10.10;100.00;96853.81;4959687;28;20231;-65
2022/09/13 00:14:53;;;;;;;9.20;8.43;;;;;;;10.09;100.00;96848.69;5005814;28;20211;-67
2022/09/13 00:17:23;;;;;;;9.03;8.27;;;;;;;10.07;100.00;96845.41;5006806;28;20200;-67
2022/09/13 00:19:51;;;;;;;9.33;8.53;;;;;;;10.06;100.00;96847.25;5008147;28;20407;-65
2022/09/13 00:22:19;;;;;;;9.33;8.53;;;;;;;10.02;100.00;96845.16;4991776;28;20228;-65
2022/09/13 00:24:47;;;;;;;9.73;8.83;;;;;;;10.05;100.00;96845.63;5008000;28;20575;-67
2022/09/13 00:27:16;;;;;;;9.00;8.23;;;;;;;10.02;100.00;96845.97;4942439;28;20227;-67
2022/09/13 00:29:45;;;;;;;8.50;7.80;;;;;;;10.00;100.00;96842.69;5005904;28;20208;-67
2022/09/13 00:32:13;;;;;;;8.63;7.93;;;;;;;9.91;100.00;96843.84;4926867;28;20236;-67
2022/09/13 00:34:42;;;;;;;8.43;7.73;;;;;;;9.82;100.00;96851.91;5007356;28;20212;-68
2022/09/13 00:37:10;;;;;;;9.30;8.57;;;;;;;9.78;100.00;96845.34;5008158;28;20533;-66
2022/09/13 00:39:38;;;;;;;8.90;8.17;;;;;;;9.67;100.00;96840.56;4994471;28;20215;-67
2022/09/13 00:42:09;;;;;;;8.67;7.97;;;;;;;9.76;100.00;96838.59;5010710;28;20466;-67
2022/09/13 00:44:56;;;;;;;9.50;8.70;;;;;;;9.83;100.00;96836.81;5008426;28;20390;-68
2022/09/13 00:47:27;;;;;;;8.83;8.13;;;;;;;9.90;100.00;96834.25;4957954;28;20220;-66
2022/09/13 00:50:01;;;;;;;8.43;7.73;;;;;;;9.85;100.00;96829.56;5006732;28;20891;-65
2022/09/13 00:52:31;;;;;;;8.20;7.60;;;;;;;9.84;100.00;96817.28;4992107;28;20444;-66
2022/09/13 00:55:05;;;;;;;8.00;7.23;;;;;;;9.83;100.00;96816.50;4988937;28;20680;-67
2022/09/13 00:57:35;;;;;;;8.80;8.10;;;;;;;9.77;100.00;96819.06;5004304;28;20778;-68
2022/09/13 01:00:10;;;;;;;9.13;8.23;;;;;;;9.77;100.00;96827.84;5008505;28;20213;-68
2022/09/13 01:02:39;;;;;;;10.37;8.70;;;;;;;9.70;100.00;96824.31;4952590;28;21201;-64
2022/09/13 01:05:09;;;;;;;8.90;8.27;;;;;;;9.55;100.00;96825.16;5006290;28;20580;-66
2022/09/13 01:07:38;;;;;;;9.23;8.43;;;;;;;9.47;100.00;96816.50;5000691;28;20755;-65
2022/09/13 01:10:07;;;;;;;7.17;6.67;;;;;;;9.50;100.00;96821.44;4998561;28;20220;-70
2022/09/13 01:12:42;;;;;;;7.97;7.37;;;;;;;9.40;100.00;96817.25;5005184;28;20707;-66
2022/09/13 01:15:11;;;;;;;8.23;7.57;;;;;;;9.35;100.00;96816.97;5011108;28;20354;-69
2022/09/13 01:17:39;;;;;;;7.07;6.57;;;;;;;9.43;100.00;96809.94;4962630;28;20856;-69
2022/09/13 01:20:10;;;;;;;7.87;7.17;;;;;;;9.45;100.00;96811.41;5003407;28;20623;-69
2022/09/13 01:22:59;;;;;;;8.30;7.63;;;;;;;9.48;100.00;96807.59;4986022;28;20263;-69
2022/09/13 01:25:54;;;;;;;7.80;7.20;;;;;;;9.46;100.00;96817.50;4999167;28;22596;-65
2022/09/13 01:28:59;;;;;;;8.03;7.30;;;;;;;9.43;100.00;96810.78;5011230;28;20641;-66
2022/09/13 01:31:35;;;;;;;8.53;7.77;;;;;;;9.46;100.00;96806.91;5012493;28;21029;-66
2022/09/13 01:34:12;;;;;;;7.67;6.97;;;;;;;9.35;100.00;96805.59;4962291;28;20220;-65
2022/09/13 01:36:51;;;;;;;7.97;7.43;;;;;;;9.33;100.00;96795.19;5009369;28;20245;-69
2022/09/13 01:39:31;;;;;;;7.57;6.87;;;;;;;9.27;100.00;96802.03;4986262;28;20207;-68
2022/09/13 01:42:08;;;;;;;9.80;7.93;;;;;;;9.25;100.00;96795.31;4968797;28;20600;-64
2022/09/13 01:44:49;;;;;;;9.20;8.47;;;;;;;9.05;100.00;96763.34;5011322;28;21240;-69
2022/09/13 01:47:25;;;;;;;8.83;8.20;;;;;;;9.28;100.00;96800.22;5007192;28;20226;-66
2022/09/13 01:50:08;;;;;;;9.63;8.90;;;;;;;9.14;100.00;96791.31;4943467;28;20220;-66
2022/09/13 01:52:43;;;;;;;8.60;7.90;;;;;;;9.08;100.00;96798.13;5003546;28;20377;-68
2022/09/13 01:55:16;;;;;;;9.43;8.43;;;;;;;9.05;100.00;96793.22;5010830;28;20684;-66
2022/09/13 01:57:50;;;;;;;8.90;8.17;;;;;;;9.12;100.00;96785.38;4964969;28;20680;-68
2022/09/13 02:00:19;;;;;;;8.87;8.17;;;;;;;9.18;100.00;96792.56;5008600;28;20295;-69
2022/09/13 02:02:51;;;;;;;9.70;8.90;;;;;;;9.22;100.00;96801.78;5006257;28;20381;-67
2022/09/13 02:05:31;;;;;;;8.57;7.77;;;;;;;9.24;100.00;96802.41;4953255;28;20619;-69
2022/09/13 02:08:02;;;;;;;9.40;8.50;;;;;;;9.20;100.00;96808.25;5008202;28;20282;-66
2022/09/13 02:10:38;;;;;;;8.90;8.20;;;;;;;8.97;100.00;96783.59;4996961;28;20204;-68
2022/09/13 02:13:10;;;;;;;8.20;7.60;;;;;;;9.14;100.00;96817.75;4993156;28;20242;-66
2022/09/13 02:15:42;;;;;;;8.47;7.80;;;;;;;9.17;100.00;96824.50;5007469;28;20197;-67
2022/09/13 02:18:17;;;;;;;8.43;7.73;;;;;;;9.21;100.00;96815.19;5011034;28;20211;-66
2022/09/13 02:20:48;;;;;;;8.53;7.93;;;;;;;9.23;100.00;96807.88;4962263;28;20802;-66
2022/09/13 02:23:20;;;;;;;9.03;8.17;;;;;;;9.24;100.00;96812.19;5011639;28;20701;-64
2022/09/13 02:25:49;;;;;;;8.90;8.00;;;;;;;9.22;100.00;96812.34;4992456;28;20665;-67
2022/09/13 02:28:21;;;;;;;9.40;8.57;;;;;;;9.19;100.00;96807.44;5013032;28;20204;-69
2022/09/13 02:30:52;;;;;;;8.27;7.67;;;;;;;9.20;100.00;96808.25;4991604;28;20278;-67
2022/09/13 02:33:26;;;;;;;9.20;8.40;;;;;;;8.98;100.00;96769.38;5011775;28;20231;-69
2022/09/13 02:35:56;;;;;;;10.00;8.97;;;;;;;9.23;100.00;96813.19;4959955;28;20990;-70
2022/09/13 02:38:28;;;;;;;11.33;10.13;;;;;;;9.17;100.00;96812.09;4951317;28;20224;-68
2022/09/13 02:41:00;;;;;;;9.97;8.93;;;;;;;9.14;100.00;96809.00;5006769;28;20215;-67
2022/09/13 02:43:33;;;;;;;13.83;10.20;;;;;;;9.13;100.00;96802.88;5011669;28;20228;-67
2022/09/13 02:46:20;;;;;;;10.33;9.33;;;;;;;9.09;100.00;96807.75;5010317;28;20917;-68
2022/09/13 02:48:59;;;;;;;9.80;9.00;;;;;;;8.95;100.00;96811.19;5007119;28;20296;-69
2022/09/13 02:51:33;;;;;;;8.50;7.80;;;;;;;8.91;100.00;96810.75;5010106;28;20295;-69
2022/09/13 02:54:11;;;;;;;10.13;9.20;;;;;;;8.83;100.00;96822.22;4928730;28;20219;-67
2022/09/13 02:56:46;;;;;;;10.27;9.37;;;;;;;8.83;100.00;96822.22;5008450;28;20301;-67
2022/09/13 02:59:16;;;;;;;9.20;8.40;;;;;;;8.84;100.00;96820.38;5010255;28;20214;-68
2022/09/13 03:01:49;;;;;;;10.37;9.43;;;;;;;8.77;100.00;96828.22;5011134;28;20714;-66
2022/09/13 03:04:20;;;;;;;10.00;9.07;;;;;;;8.77;100.00;96822.13;5007777;28;20204;-69
2022/09/13 03:06:50;;;;;;;10.17;9.13;;;;;;;8.81;100.00;96812.81;5011194;28;20314;-67
2022/09/13 03:09:18;;;;;;;12.50;11.30;;;;;;;8.89;100.00;96798.72;4959502;28;20209;-68
2022/09/13 03:11:57;;;;;;;11.60;10.40;;;;;;;8.91;100.00;96792.25;5009691;28;20794;-65
2022/09/13 03:14:34;;;;;;;10.93;9.83;;;;;;;8.92;100.00;96785.97;5007953;28;20291;-67
2022/09/13 03:17:14;;;;;;;10.67;9.57;;;;;;;8.96;100.00;96776.66;5011777;28;20226;-67
2022/09/13 03:19:53;;;;;;;11.27;10.13;;;;;;;8.93;100.00;96766.47;5007729;28;20718;-66
2022/09/13 03:22:37;;;;;;;11.70;9.33;;;;;;;8.87;100.00;96761.91;5009445;28;20429;-69
2022/09/13 03:25:10;;;;;;;9.63;8.83;;;;;;;8.79;100.00;96762.84;4961204;28;20220;-66
2022/09/13 03:27:44;;;;;;;8.30;7.60;;;;;;;8.82;100.00;96762.47;5006792;28;20224;-68
2022/09/13 03:30:14;;;;;;;7.90;7.20;;;;;;;8.78;100.00;96753.25;5006571;28;20207;-67
2022/09/13 03:32:47;;;;;;;8.17;7.47;;;;;;;8.68;100.00;96761.47;5007852;28;20307;-64
2022/09/13 03:35:24;;;;;;;9.20;8.30;;;;;;;8.60;100.00;96750.16;5005623;28;20590;-68
2022/09/13 03:37:57;;;;;;;9.97;9.03;;;;;;;8.59;100.00;96746.72;5008832;28;20275;-66
2022/09/13 03:40:35;;;;;;;10.17;9.20;;;;;;;8.52;100.00;96757.19;4955349;28;20649;-70
2022/09/13 03:43:07;;;;;;;9.97;9.07;;;;;;;8.43;100.00;96755.59;5007899;28;20242;-68
2022/09/13 03:45:39;;;;;;;9.73;9.00;;;;;;;8.40;100.00;96745.41;4984459;28;20694;-66
2022/09/13 03:48:09;;;;;;;10.23;9.43;;;;;;;8.44;100.00;96751.97;5010699;28;20231;-67
2022/09/13 03:50:39;;;;;;;11.90;10.77;;;;;;;8.41;100.00;96762.88;5007336;28;20650;-66
2022/09/13 03:53:10;;;;;;;10.47;9.47;;;;;;;8.43;100.00;96755.59;5010650;28;20454;-69
2022/09/13 03:55:41;;;;;;;10.57;9.43;;;;;;;8.47;100.00;96753.41;5001557;28;20299;-65
2022/09/13 03:58:12;;;;;;;10.87;9.73;;;;;;;8.58;100.00;96765.38;4969082;28;20209;-69
2022/09/13 04:00:40;;;;;;;11.23;10.23;;;;;;;8.68;100.00;96745.63;5009101;28;20319;-62
2022/09/13 04:03:09;;;;;;;11.10;10.10;;;;;;;8.76;100.00;96754.44;5005050;28;20315;-66
2022/09/13 04:05:39;;;;;;;11.87;10.67;;;;;;;8.84;100.00;96754.34;5007200;28;20203;-65
2022/09/13 04:08:07;;;;;;;12.10;10.90;;;;;;;8.91;100.00;96760.56;5012733;28;20227;-68
2022/09/13 04:10:36;;;;;;;10.97;9.87;;;;;;;8.98;100.00;96758.81;4990516;28;20212;-66
2022/09/13 04:13:05;;;;;;;12.33;11.03;;;;;;;9.05;100.00;96750.94;4973072;28;20362;-65
2022/09/13 04:15:33;;;;;;;17.23;13.77;;;;;;;9.12;100.00;96748.38;5006745;28;20204;-65
2022/09/13 04:18:01;;;;;;;16.33;13.70;;;;;;;9.11;100.00;96755.50;5009980;28;20218;-70
2022/09/13 04:20:30;;;;;;;14.00;12.67;;;;;;;9.04;100.00;96753.78;5007342;28;20204;-67
2022/09/13 04:22:59;;;;;;;13.63;12.40;;;;;;;9.05;100.00;96752.78;5011604;28;20320;-68
2022/09/13 04:25:28;;;;;;;12.50;11.17;;;;;;;9.06;100.00;96757.88;5006756;28;20429;-67
2022/09/13 04:27:58;;;;;;;11.60;10.40;;;;;;;9.09;100.00;96754.88;4960265;28;20302;-71
2022/09/13 04:30:27;;;;;;;11.87;10.77;;;;;;;9.13;100.00;96760.59;5006532;28;20281;-71
2022/09/13 04:32:58;;;;;;;10.77;9.83;;;;;;;8.86;100.00;96735.69;4986882;28;20255;-70
2022/09/13 04:35:27;;;;;;;18.73;10.20;;;;;;;8.71;100.00;96743.59;5010102;28;20341;-69
2022/09/13 04:37:57;;;;;;;11.77;10.57;;;;;;;8.92;100.00;96772.75;5008176;28;20588;-69
2022/09/13 04:40:26;;;;;;;12.30;11.00;;;;;;;9.06;100.00;96765.78;4988902;28;20199;-67
2022/09/13 04:42:57;;;;;;;11.80;10.77;;;;;;;8.94;100.00;96752.25;4976832;28;20590;-70
2022/09/13 04:45:26;;;;;;;12.43;11.33;;;;;;;9.03;100.00;96741.56;4935318;28;20216;-69
2022/09/13 04:47:55;;;;;;;11.30;10.20;;;;;;;9.08;100.00;96755.06;5010155;28;20267;-67
2022/09/13 04:50:24;;;;;;;10.70;9.27;;;;;;;9.07;100.00;96771.91;4978324;28;20327;-67
2022/09/13 04:52:55;;;;;;;11.00;9.53;;;;;;;9.00;100.00;96765.72;4992239;28;20593;-69
2022/09/13 04:55:24;;;;;;;10.83;8.93;;;;;;;8.97;100.00;96770.38;4986263;28;20340;-68
2022/09/13 04:57:55;;;;;;;11.17;10.03;;;;;;;8.83;100.00;96750.06;5011145;28;20204;-69
2022/09/13 05:00:24;;;;;;;9.70;8.83;;;;;;;8.98;100.00;96797.59;4958614;28;20397;-69
2022/09/13 05:02:56;;;;;;;10.63;9.57;;;;;;;8.86;100.00;96793.78;5010020;28;20256;-68
2022/09/13 05:05:27;;;;;;;11.97;10.97;;;;;;;8.82;100.00;96793.31;5011261;28;20205;-66
2022/09/13 05:07:56;;;;;;;11.00;10.00;;;;;;;8.90;100.00;96795.06;5012773;28;20228;-64
2022/09/13 05:10:24;;;;;;;10.00;9.20;;;;;;;9.00;100.00;96785.03;5012348;28;20286;-64
2022/09/13 05:12:54;;;;;;;10.77;9.87;;;;;;;9.17;100.00;96783.00;4985286;28;20282;-63
2022/09/13 05:15:22;;;;;;;10.43;9.40;;;;;;;9.30;100.00;96779.72;5013085;28;20514;-66
2022/09/13 05:17:51;;;;;;;10.90;9.90;;;;;;;9.42;100.00;96782.69;4963670;28;20216;-68
2022/09/13 05:20:20;;;;;;;10.83;9.80;;;;;;;9.51;100.00;96778.91;5011124;28;20739;-70
2022/09/13 05:22:48;;;;;;;11.00;10.10;;;;;;;9.62;100.00;96780.25;4992123;28;20232;-69
2022/09/13 05:25:16;;;;;;;10.27;9.37;;;;;;;9.65;100.00;96774.59;5013417;28;20196;-67
2022/09/13 05:27:46;;;;;;;11.57;10.47;;;;;;;9.43;100.00;96733.25;4987142;28;20319;-72
2022/09/13 05:30:16;;;;;;;13.60;12.37;;;;;;;9.73;100.00;96771.00;5012699;28;20731;-69
2022/09/13 05:32:44;;;;;;;16.43;14.67;;;;;;;9.71;100.00;96765.09;4966107;28;20231;-70
2022/09/13 05:35:12;;;;;;;10.43;9.53;;;;;;;9.64;100.00;96770.31;5009418;28;20386;-69
2022/09/13 05:37:41;;;;;;;14.33;10.57;;;;;;;9.60;100.00;96776.16;4994024;28;20287;-70
2022/09/13 05:40:10;;;;;;;11.07;10.07;;;;;;;9.63;100.00;96781.06;5007938;28;20696;-69
2022/09/13 05:42:39;;;;;;;11.00;9.17;;;;;;;9.61;100.00;96775.97;4987993;28;20228;-70
2022/09/13 05:45:09;;;;;;;9.13;8.43;;;;;;;9.53;100.00;96789.31;5007733;28;20211;-70
2022/09/13 05:47:39;;;;;;;10.00;9.10;;;;;;;9.52;100.00;96787.69;4962373;28;23061;-69
2022/09/13 05:50:09;;;;;;;9.30;8.40;;;;;;;9.39;100.00;96793.66;5007859;28;20203;-70
2022/09/13 05:52:52;;;;;;;9.10;8.37;;;;;;;9.32;100.00;96790.09;4995006;28;20246;-69
2022/09/13 05:55:21;;;;;;;10.10;9.10;;;;;;;9.33;100.00;96783.81;5004260;28;20672;-68
2022/09/13 05:57:50;;;;;;;9.83;8.97;;;;;;;9.49;100.00;96801.28;5007345;28;20731;-69
2022/09/13 06:00:18;;;;;;;13.10;9.87;;;;;;;9.50;100.00;96806.38;5007269;28;20751;-67
2022/09/13 06:02:48;;;;;;;9.73;9.03;;;;;;;9.59;100.00;96801.81;5006784;28;20224;-66
2022/09/13 06:05:16;;;;;;;10.23;9.23;;;;;;;9.74;100.00;96791.16;4959707;28;20785;-68
2022/09/13 06:07:45;;;;;;;10.07;9.20;;;;;;;9.89;100.00;96790.28;4994393;28;20290;-65
2022/09/13 06:10:13;;;;;;;10.57;9.70;;;;;;;10.03;100.00;96780.63;5006245;28;20295;-67
2022/09/13 06:12:42;;;;;;;10.60;9.80;;;;;;;10.12;100.00;96785.63;5011376;28;20307;-67
2022/09/13 06:15:10;;;;;;;11.57;10.57;;;;;;;10.26;100.00;96789.19;5006182;28;20339;-68
2022/09/13 06:17:38;;;;;;;12.33;11.27;;;;;;;10.41;100.00;96783.81;5008327;28;20382;-66
2022/09/13 06:20:10;;;;;;;12.97;11.67;;;;;;;10.37;100.00;96742.81;4959945;28;20949;-67
2022/09/13 06:22:38;;;;;;;11.67;10.83;;;;;;;10.79;100.00;96776.50;5009586;28;20252;-68
2022/09/13 06:25:08;;;;;;;12.73;11.60;;;;;;;10.91;100.00;96760.88;5009858;28;20315;-68
2022/09/13 06:27:36;;;;;;;12.27;11.27;;;;;;;11.01;100.00;96756.06;5010365;28;20595;-67
2022/09/13 06:30:07;;;;;;;10.93;9.93;;;;;;;11.09;100.00;96755.06;5011909;28;20224;-68
2022/09/13 06:32:36;;;;;;;11.57;10.67;;;;;;;11.20;100.00;96753.66;5008166;28;20310;-67
2022/09/13 06:35:05;;;;;;;11.47;10.37;;;;;;;11.22;100.00;96762.25;4958554;28;20226;-67
2022/09/13 06:37:34;;;;;;;10.43;9.53;;;;;;;11.19;100.00;96754.69;5009737;28;20200;-67
2022/09/13 06:40:05;;;;;;;10.47;9.47;;;;;;;11.24;100.00;96753.09;5010807;28;20215;-69
2022/09/13 06:42:34;;;;;;;10.50;9.57;;;;;;;11.34;100.00;96757.19;5007940;28;20903;-67
2022/09/13 06:45:02;;;;;;;9.37;8.57;;;;;;;11.51;100.00;96774.38;5011279;28;20502;-68
2022/09/13 06:47:31;;;;;;;10.60;9.70;;;;;;;11.60;100.00;96763.59;5008171;28;20343;-68
2022/09/13 06:49:59;;;;;;;10.30;9.50;;;;;;;11.77;100.00;96772.00;4961659;28;20228;-66
2022/09/13 06:52:28;;;;;;;9.83;9.07;;;;;;;11.88;100.00;96768.75;4948893;28;20600;-68
2022/09/13 06:54:57;;;;;;;11.00;10.10;;;;;;;11.89;100.00;96770.38;5007865;28;20212;-66
2022/09/13 06:57:26;;;;;;;13.47;11.03;;;;;;;12.00;100.00;96772.44;4992677;28;20205;-68
2022/09/13 06:59:54;;;;;;;10.77;9.97;;;;;;;12.07;100.00;96772.47;5007667;28;20283;-66
2022/09/13 07:02:23;;;;;;;11.83;10.83;;;;;;;12.28;100.00;96765.28;4990847;28;20224;-69
2022/09/13 07:04:52;;;;;;;11.23;10.37;;;;;;;12.36;100.00;96758.97;5006526;28;20219;-68
2022/09/13 07:07:20;;;;;;;12.50;11.17;;;;;;;12.51;100.00;96751.59;4960762;28;20525;-69
2022/09/13 07:09:49;;;;;;;12.10;11.20;;;;;;;12.59;100.00;96747.91;5007690;28;20335;-64
2022/09/13 07:12:18;;;;;;;11.33;10.30;;;;;;;12.65;100.00;96751.56;5011591;28;20736;-65
2022/09/13 07:14:47;;;;;;;11.33;10.40;;;;;;;12.82;100.00;96757.25;5005756;28;20861;-64
2022/09/13 07:17:16;;;;;;;12.20;11.17;;;;;;;13.01;100.00;96760.88;4992251;28;20298;-66
2022/09/13 07:19:44;;;;;;;12.50;11.50;;;;;;;13.13;100.00;96763.72;5005049;28;20398;-69
2022/09/13 07:22:12;;;;;;;11.33;10.50;;;;;;;13.30;100.00;96767.50;5010863;28;20319;-67
2022/09/13 07:24:40;;;;;;;10.33;9.43;;;;;;;13.40;100.00;96768.91;4957799;28;20212;-67
2022/09/13 07:27:09;;;;;;;10.17;9.37;;;;;;;13.56;100.00;96763.13;5010975;28;20494;-68
2022/09/13 07:29:39;;;;;;;10.13;9.43;;;;;;;13.80;100.00;96765.25;5007856;28;20312;-69
2022/09/13 07:32:07;;;;;;;10.80;10.00;;;;;;;13.72;100.00;96729.03;5009699;28;20275;-68
2022/09/13 07:34:36;;;;;;;10.93;9.53;;;;;;;14.00;100.00;96763.25;4990296;28;20235;-67
2022/09/13 07:37:05;;;;;;;10.10;9.37;;;;;;;14.17;100.00;96760.84;5010159;28;20232;-67
2022/09/13 07:39:33;;;;;;;10.90;10.00;;;;;;;14.20;100.00;96759.63;4955897;28;20216;-69
2022/09/13 07:42:01;;;;;;;10.97;10.17;;;;;;;14.22;100.00;96754.88;5011277;28;20216;-70
2022/09/13 07:44:29;;;;;;;10.90;9.93;;;;;;;14.29;100.00;96766.31;5007401;28;20576;-69
2022/09/13 07:46:59;;;;;;;11.30;10.40;;;;;;;14.37;100.00;96757.22;5009246;28;20544;-69
2022/09/13 07:49:27;;;;;;;10.67;9.97;;;;;;;14.47;100.00;96752.19;4991287;28;20230;-69
2022/09/13 07:51:56;;;;;;;11.53;10.53;;;;;;;14.45;100.00;96746.28;5008484;28;20711;-68
2022/09/13 07:54:24;;;;;;;12.00;11.10;;;;;;;14.39;100.00;96752.50;4960760;28;20250;-68
2022/09/13 07:56:52;;;;;;;11.23;10.40;;;;;;;14.37;100.00;96756.41;5007639;28;20384;-67
2022/09/13 07:59:21;;;;;;;11.90;11.00;;;;;;;14.26;100.00;96753.41;5009856;28;20283;-69
2022/09/13 08:01:53;;;;;;;11.67;10.77;;;;;;;14.29;100.00;96752.97;5006461;28;20228;-70
2022/09/13 08:04:25;;;;;;;12.67;11.57;;;;;;;14.42;100.00;96756.59;4991006;28;20279;-70
2022/09/13 08:06:53;;;;;;;12.10;11.10;;;;;;;14.54;100.00;96759.31;5006999;28;20354;-72
2022/09/13 08:09:23;;;;;;;11.53;10.67;;;;;;;14.61;100.00;96762.75;5010520;28;20230;-68
2022/09/13 08:11:52;;;;;;;12.70;11.60;;;;;;;14.68;100.00;96760.84;4968486;28;20617;-67
2022/09/13 08:14:21;;;;;;;11.67;10.87;;;;;;;14.65;100.00;96769.28;5009665;28;20211;-70
2022/09/13 08:16:49;;;;;;;11.93;10.97;;;;;;;14.74;100.00;96767.97;5006856;28;20309;-64
2022/09/13 08:19:19;;;;;;;12.03;11.03;;;;;;;14.65;100.00;96773.78;5010960;28;20315;-66
2022/09/13 08:21:48;;;;;;;11.20;10.30;;;;;;;14.62;100.00;96772.38;4992814;28;20802;-66
2022/09/13 08:24:18;;;;;;;12.43;11.43;;;;;;;14.73;100.00;96762.84;5012541;28;20299;-66
2022/09/13 08:26:46;;;;;;;11.57;10.47;;;;;;;14.81;100.00;96757.25;4960954;28;20216;-69
2022/09/13 08:29:15;;;;;;;11.03;10.03;;;;;;;14.70;100.00;96733.94;5013610;28;20966;-66
2022/09/13 08:31:44;;;;;;;10.90;10.10;;;;;;;15.00;100.00;96759.91;5008314;28;20484;-66
2022/09/13 08:34:13;;;;;;;10.67;9.77;;;;;;;15.13;100.00;96748.28;5010982;28;20208;-70
2022/09/13 08:36:41;;;;;;;11.93;10.83;;;;;;;15.32;100.00;96747.19;4992524;28;20281;-64
2022/09/13 08:39:12;;;;;;;9.43;8.57;;;;;;;15.41;100.00;96744.25;5010964;28;20655;-67
2022/09/13 08:42:01;;;;;;;10.10;9.30;;;;;;;15.44;100.00;96741.91;4960898;28;20258;-66
2022/09/13 08:44:32;;;;;;;10.50;9.60;;;;;;;15.39;100.00;96701.75;5008368;28;20212;-66
2022/09/13 08:47:08;;;;;;;10.00;9.30;;;;;;;15.62;100.00;96740.25;5013018;28;20747;-70
2022/09/13 08:49:40;;;;;;;9.67;8.77;;;;;;;15.67;100.00;96739.56;4999711;28;20221;-68
2022/09/13 08:52:27;;;;;;;10.60;9.77;;;;;;;15.82;100.00;96742.63;5012548;28;20323;-68
2022/09/13 08:54:57;;;;;;;10.30;9.47;;;;;;;16.19;100.00;96739.00;5012068;28;21586;-67
2022/09/13 08:57:31;;;;;;;9.03;8.33;;;;;;;16.46;100.00;96738.56;4963373;28;20224;-70
2022/09/13 09:00:04;;;;;;;9.57;8.77;;;;;;;16.61;100.00;96724.72;4954207;28;20212;-69
2022/09/13 09:02:52;;;;;;;9.60;8.60;;;;;;;16.71;100.00;96719.56;5010467;28;20224;-69
2022/09/13 09:05:22;;;;;;;9.23;8.60;;;;;;;16.75;100.00;96725.28;5010303;28;20688;-69
2022/09/13 09:07:53;;;;;;;9.33;8.63;;;;;;;16.81;100.00;96718.16;5011189;28;20206;-68
2022/09/13 09:10:25;;;;;;;9.30;8.37;;;;;;;16.78;100.00;96720.25;5011169;28;20761;-66
2022/09/13 09:12:57;;;;;;;7.93;7.30;;;;;;;16.63;100.00;96719.94;5008782;28;20228;-67
2022/09/13 09:15:27;;;;;;;8.87;8.17;;;;;;;16.51;100.00;96729.84;4966067;28;20220;-67
2022/09/13 09:17:59;;;;;;;8.20;7.60;;;;;;;16.29;100.00;96693.81;5008669;28;20214;-69
2022/09/13 09:20:32;;;;;;;9.20;8.50;;;;;;;16.40;100.00;96726.13;5011641;28;20326;-66
2022/09/13 09:23:03;;;;;;;8.03;7.30;;;;;;;16.35;100.00;96737.50;5009359;28;20405;-69
2022/09/13 09:25:34;;;;;;;8.40;7.80;;;;;;;16.32;100.00;96708.56;5013936;28;20215;-68
2022/09/13 09:28:11;;;;;;;9.37;8.67;;;;;;;16.60;100.00;96734.59;5007749;28;20420;-68
2022/09/13 09:30:45;;;;;;;7.60;7.10;;;;;;;16.73;100.00;96735.41;4965908;28;20242;-68
2022/09/13 09:33:35;;;;;;;8.47;7.83;;;;;;;16.88;100.00;96734.91;5008570;28;20506;-68
2022/09/13 09:36:10;;;;;;;8.63;8.00;;;;;;;16.95;100.00;96732.09;5007619;28;20472;-69
2022/09/13 09:38:41;;;;;;;8.70;8.10;;;;;;;17.17;100.00;96726.94;5011956;28;20524;-69
2022/09/13 09:41:24;;;;;;;9.17;8.47;;;;;;;17.31;100.00;96722.13;5005950;28;20704;-65
2022/09/13 09:43:58;;;;;;;9.07;8.33;;;;;;;17.71;100.00;96720.47;5008795;28;20826;-69
2022/09/13 09:46:30;;;;;;;8.07;7.37;;;;;;;18.07;100.00;96721.88;4964220;28;20721;-67
2022/09/13 09:50:07;;;;;;;6.80;6.33;;;;;;;18.19;100.00;96712.97;5008525;28;20295;-68
2022/09/13 09:51:55;;;;;;;6.97;6.47;;;;;;;18.22;100.00;96710.59;5009046;28;20322;-66
2022/09/13 09:54:24;;;;;;;6.50;6.10;;;;;;;18.29;100.00;96704.25;5011720;28;20299;-64
2022/09/13 09:56:55;;;;;;;6.27;5.87;;;;;;;18.52;100.00;96706.75;5008273;28;20683;-67
2022/09/13 09:59:27;;;;;;;7.00;6.50;;;;;;;18.50;100.00;96671.31;5012228;28;20204;-68
2022/09/13 10:01:56;;;;;;;7.23;6.63;;;;;;;18.82;100.00;96691.28;4962622;28;20615;-69
2022/09/13 10:04:25;;;;;;;6.87;6.37;;;;;;;18.85;100.00;96682.75;5009337;28;20204;-68
2022/09/13 10:07:10;;;;;;;6.57;6.07;;;;;;;18.62;100.00;96687.31;5010711;28;20232;-68
2022/09/13 10:09:56;;;;;;;7.10;6.50;;;;;;;18.74;100.00;96689.84;5010048;28;20200;-69
2022/09/13 10:12:28;;;;;;;8.80;8.03;;;;;;;18.70;100.00;96686.03;5011252;28;20219;-66
2022/09/13 10:15:16;;;;;;;7.80;7.20;;;;;;;18.75;100.00;96685.31;5008767;28;20215;-69
2022/09/13 10:18:01;;;;;;;6.83;6.33;;;;;;;18.65;100.00;96645.72;4963949;28;20314;-68
2022/09/13 10:20:30;;;;;;;7.40;6.80;;;;;;;18.99;100.00;96674.38;5006747;28;20291;-69
2022/09/13 10:23:19;;;;;;;7.43;6.93;;;;;;;19.13;100.00;96685.50;5007873;28;20329;-69
2022/09/13 10:26:07;;;;;;;9.23;7.50;;;;;;;18.80;100.00;96677.31;5008900;28;20212;-67
2022/09/13 10:28:46;;;;;;;7.30;6.70;;;;;;;18.84;100.00;96680.31;5010736;28;20231;-70
2022/09/13 10:31:16;;;;;;;7.40;6.90;;;;;;;18.86;100.00;96680.88;5008855;28;20238;-68
2022/09/13 10:33:52;;;;;;;7.23;6.73;;;;;;;18.68;100.00;96673.94;4960296;28;20424;-69
2022/09/13 10:36:23;;;;;;;7.10;6.60;;;;;;;18.56;100.00;96668.69;5010050;28;20415;-67
2022/09/13 10:39:16;;;;;;;8.03;7.33;;;;;;;18.38;100.00;96681.34;5006951;28;20204;-69
2022/09/13 10:41:50;;;;;;;8.17;7.40;;;;;;;18.33;100.00;96683.94;5008228;28;20592;-68
2022/09/13 10:44:28;;;;;;;7.83;7.00;;;;;;;18.25;100.00;96692.41;5009314;28;20279;-70
2022/09/13 10:46:57;;;;;;;7.53;6.97;;;;;;;18.11;100.00;96676.66;4973097;28;20200;-68
2022/09/13 10:49:47;;;;;;;7.87;7.37;;;;;;;18.44;100.00;96704.50;5007827;28;20208;-67
2022/09/13 10:52:30;;;;;;;8.00;7.30;;;;;;;18.57;100.00;96699.81;5002958;28;20459;-68
2022/09/13 10:55:24;;;;;;;7.83;7.33;;;;;;;18.72;100.00;96697.34;5007411;28;20716;-69
2022/09/13 10:57:54;;;;;;;8.17;7.50;;;;;;;18.57;100.00;96691.78;5009489;28;20226;-69
2022/09/13 11:00:29;;;;;;;7.10;6.47;;;;;;;18.73;100.00;96688.22;5009204;28;20260;-68
2022/09/13 11:03:31;;;;;;;7.77;7.07;;;;;;;18.64;100.00;96676.31;4958406;28;20401;-68
2022/09/13 11:06:03;;;;;;;7.93;7.37;;;;;;;18.31;100.00;96664.59;4965951;28;20240;-68
2022/09/13 11:08:39;;;;;;;8.37;7.00;;;;;;;18.30;100.00;96657.59;4932172;28;20218;-68
2022/09/13 11:11:19;;;;;;;7.87;7.30;;;;;;;18.11;100.00;96657.06;4963341;28;20545;-69
2022/09/13 11:13:59;;;;;;;8.00;7.40;;;;;;;18.08;100.00;96648.47;4963880;28;20311;-68
2022/09/13 11:16:38;;;;;;;7.93;7.33;;;;;;;17.98;100.00;96650.13;4968362;28;20628;-67
2022/09/13 11:19:46;;;;;;;7.80;7.30;;;;;;;17.85;100.00;96632.53;4961715;28;20442;-68
2022/09/13 11:22:34;;;;;;;9.90;8.20;;;;;;;17.64;100.00;96641.06;4858086;29;20640;-66
2022/09/13 11:25:12;;;;;;;8.67;8.07;;;;;;;17.65;100.00;96637.34;4904225;29;20246;-68
2022/09/13 11:27:47;;;;;;;8.37;7.57;;;;;;;17.74;100.00;96637.72;4909576;29;20239;-69
2022/09/13 11:30:18;;;;;;;8.33;7.67;;;;;;;17.81;100.00;96628.72;4892440;29;20745;-68
2022/09/13 11:33:10;;;;;;;8.43;7.73;;;;;;;17.85;100.00;96649.41;4911471;29;20243;-68
2022/09/13 11:35:51;;;;;;;8.97;8.30;;;;;;;17.87;100.00;96655.34;4909088;29;20561;-68
2022/09/13 11:38:36;;;;;;;8.53;7.83;;;;;;;17.97;100.00;96646.66;4834699;29;20290;-68
2022/09/13 11:41:15;;;;;;;7.40;6.80;;;;;;;18.15;100.00;96639.44;4918980;28;20233;-67
2022/09/13 11:43:56;;;;;;;7.83;7.03;;;;;;;18.20;100.00;96642.22;4949228;28;20438;-65
2022/09/13 11:46:27;;;;;;;7.93;7.23;;;;;;;17.99;100.00;96624.97;4928941;28;20209;-65
2022/09/13 11:49:32;;;;;;;8.03;7.40;;;;;;;18.15;100.00;96656.34;4967227;28;20293;-66